Time;durP1;ratioP1;P1;durP2;ratioP2;P2;SDS_P1;SDS_P2;PMS_P1;PMS_P2;Temp;Humidity;BMP_temperature;BMP_pressure;BME280_temperature;BME280_humidity;BME280_pressure;Samples;Min_cycle;Max_cycle;Signal;HPM_P1;HPM_P2
2022/11/24 00:00:02;;;;;;;21.48;5.70;;;7.60;99.90;;;;;;4217426;28;20075;-87
2022/11/24 00:02:02;;;;;;;13.98;5.18;;;7.60;99.90;;;;;;4228280;28;20144;-86
2022/11/24 00:04:04;;;;;;;18.58;6.38;;;7.60;99.90;;;;;;4216973;28;20044;-86
2022/11/24 00:06:09;;;;;;;12.43;5.95;;;7.60;99.90;;;;;;4215570;28;20056;-85
2022/11/24 00:08:11;;;;;;;14.40;5.40;;;7.60;99.90;;;;;;4247339;27;20043;-86
2022/11/24 00:10:12;;;;;;;15.70;6.10;;;7.50;99.90;;;;;;4249080;27;20058;-86
2022/11/24 00:12:13;;;;;;;14.45;6.15;;;7.50;99.90;;;;;;4249125;27;20043;-85
2022/11/24 00:14:15;;;;;;;20.35;5.75;;;7.50;99.90;;;;;;4230488;28;20043;-86
2022/11/24 00:16:18;;;;;;;15.35;6.43;;;7.90;99.90;;;;;;4248894;27;20502;-86
2022/11/24 00:18:20;;;;;;;14.38;6.25;;;7.50;99.90;;;;;;4231095;28;20122;-87
2022/11/24 00:20:20;;;;;;;15.32;5.78;;;7.50;99.90;;;;;;4248703;27;20032;-86
2022/11/24 00:22:21;;;;;;;18.60;6.82;;;7.50;99.90;;;;;;4209238;28;20098;-86
2022/11/24 00:24:22;;;;;;;19.17;6.65;;;7.50;99.90;;;;;;4226383;28;20450;-86
2022/11/24 00:26:31;;;;;;;16.92;6.70;;;7.50;99.90;;;;;;4248187;27;20061;-86
2022/11/24 00:28:33;;;;;;;20.67;5.75;;;7.50;99.90;;;;;;4226427;28;20449;-85
2022/11/24 00:30:34;;;;;;;13.35;5.97;;;7.40;99.90;;;;;;4233689;28;20104;-86
2022/11/24 00:32:35;;;;;;;21.05;6.20;;;7.40;99.90;;;;;;4249418;27;20096;-86
2022/11/24 00:34:37;;;;;;;17.23;6.20;;;7.40;99.90;;;;;;4225800;28;20048;-86
2022/11/24 00:36:38;;;;;;;14.90;5.72;;;7.40;99.90;;;;;;4250743;27;20039;-87
2022/11/24 00:38:41;;;;;;;18.98;7.05;;;7.40;99.90;;;;;;4249037;27;20045;-86
2022/11/24 00:40:42;;;;;;;16.02;6.10;;;7.40;99.90;;;;;;4230285;28;20061;-86
2022/11/24 00:42:43;;;;;;;17.63;5.72;;;7.30;99.90;;;;;;4248405;27;20047;-86
2022/11/24 00:44:45;;;;;;;19.40;6.72;;;7.30;99.90;;;;;;4230400;28;20079;-86
2022/11/24 00:46:47;;;;;;;14.23;5.82;;;7.30;99.90;;;;;;4230146;28;20558;-86
2022/11/24 00:48:48;;;;;;;22.70;6.13;;;7.30;99.90;;;;;;4213863;28;20426;-86
2022/11/24 00:51:01;;;;;;;19.20;7.43;;;7.30;99.90;;;;;;4231426;28;20083;-86
2022/11/24 00:53:02;;;;;;;16.45;5.88;;;7.30;99.90;;;;;;4207841;28;20052;-86
2022/11/24 00:55:03;;;;;;;18.52;6.10;;;7.30;99.90;;;;;;4231084;28;20087;-86
2022/11/24 00:57:04;;;;;;;12.57;4.70;;;7.30;99.90;;;;;;4213916;28;20054;-86
2022/11/24 00:59:05;;;;;;;13.95;4.85;;;7.20;99.90;;;;;;4207941;28;20535;-86
2022/11/24 01:01:17;;;;;;;15.65;5.32;;;7.00;99.90;;;;;;4213194;28;20047;-85
2022/11/24 01:03:19;;;;;;;20.60;5.70;;;7.20;99.90;;;;;;4230651;28;20051;-86
2022/11/24 01:05:21;;;;;;;19.25;6.13;;;7.20;99.90;;;;;;4248256;27;20144;-86
2022/11/24 01:07:21;;;;;;;13.75;4.97;;;7.20;99.90;;;;;;4248515;27;20050;-85
2022/11/24 01:09:22;;;;;;;22.42;5.78;;;7.20;99.90;;;;;;4229099;28;20047;-87
2022/11/24 01:11:25;;;;;;;21.98;5.85;;;7.20;99.90;;;;;;4231001;28;20485;-86
2022/11/24 01:13:26;;;;;;;20.13;5.35;;;7.30;99.90;;;;;;4215510;28;20052;-86
2022/11/24 01:15:29;;;;;;;16.05;5.32;;;7.20;99.90;;;;;;4249362;27;20027;-85
2022/11/24 01:17:29;;;;;;;21.15;6.03;;;7.30;99.90;;;;;;4212611;28;20573;-85
2022/11/24 01:19:30;;;;;;;20.42;5.57;;;7.20;99.90;;;;;;4250094;27;20039;-86
2022/11/24 01:21:31;;;;;;;16.45;5.13;;;7.20;99.90;;;;;;4232158;28;20048;-85
2022/11/24 01:23:32;;;;;;;15.93;5.32;;;7.20;99.90;;;;;;4231915;28;20130;-86
2022/11/24 01:25:32;;;;;;;19.58;4.88;;;7.20;99.90;;;;;;4232401;28;20116;-86
2022/11/24 01:27:33;;;;;;;22.75;5.25;;;7.20;99.90;;;;;;4231392;28;20064;-86
2022/11/24 01:29:35;;;;;;;15.88;5.10;;;7.00;99.90;;;;;;4215253;28;20428;-86
2022/11/24 01:31:36;;;;;;;19.20;4.78;;;7.20;99.90;;;;;;4240979;27;20051;-86
2022/11/24 01:33:38;;;;;;;17.15;4.38;;;7.10;99.90;;;;;;4232479;28;20525;-86
2022/11/24 01:35:40;;;;;;;15.35;4.60;;;7.10;99.90;;;;;;4250885;27;20050;-87
2022/11/24 01:37:40;;;;;;;18.85;4.85;;;7.20;99.90;;;;;;4232094;28;20048;-86
2022/11/24 01:39:41;;;;;;;20.05;4.75;;;7.10;99.90;;;;;;4250527;27;20035;-86
2022/11/24 01:41:42;;;;;;;22.55;5.95;;;6.80;99.90;;;;;;4230808;28;20043;-86
2022/11/24 01:43:45;;;;;;;13.98;4.38;;;7.10;99.90;;;;;;4248660;27;20047;-85
2022/11/24 01:45:46;;;;;;;18.40;4.60;;;7.10;99.90;;;;;;4248088;27;20490;-85
2022/11/24 01:47:47;;;;;;;23.10;6.97;;;7.10;99.90;;;;;;4229992;28;20491;-85
2022/11/24 01:49:52;;;;;;;16.33;4.25;;;7.10;99.90;;;;;;4247529;27;20039;-85
2022/11/24 01:52:11;;;;;;;8.30;3.92;;;7.10;99.90;;;;;;4249452;27;20107;-85
2022/11/24 01:54:21;;;;;;;14.90;4.40;;;7.10;99.90;;;;;;4216111;28;20645;-85
2022/11/24 01:56:24;;;;;;;15.07;4.60;;;7.00;99.90;;;;;;4246090;27;20514;-86
2022/11/24 01:58:29;;;;;;;13.20;4.35;;;7.10;99.90;;;;;;4251878;27;20498;-85
2022/11/24 02:00:31;;;;;;;22.55;4.28;;;7.00;99.90;;;;;;4233383;28;20100;-85
2022/11/24 02:02:33;;;;;;;18.33;4.30;;;7.10;99.90;;;;;;4251102;27;20035;-87
2022/11/24 02:04:35;;;;;;;18.17;4.53;;;7.10;99.90;;;;;;4232715;28;20051;-87
2022/11/24 02:06:38;;;;;;;21.70;5.10;;;7.00;99.90;;;;;;4250828;27;20047;-87
2022/11/24 02:09:06;;;;;;;16.77;3.88;;;7.10;99.90;;;;;;4250616;27;20499;-86
2022/11/24 02:11:07;;;;;;;13.50;3.80;;;7.10;99.90;;;;;;4250629;27;20403;-86
2022/11/24 02:13:08;;;;;;;18.23;5.15;;;6.80;99.90;;;;;;4249796;27;20070;-86
2022/11/24 02:15:10;;;;;;;21.92;4.53;;;7.10;99.90;;;;;;4237383;27;20046;-86
2022/11/24 02:17:11;;;;;;;19.08;3.90;;;7.20;99.90;;;;;;4247507;27;20047;-86
2022/11/24 02:19:38;;;;;;;13.80;3.83;;;7.10;99.90;;;;;;4251655;27;20039;-86
2022/11/24 02:21:39;;;;;;;13.85;3.33;;;7.20;99.90;;;;;;4230610;28;20492;-86
2022/11/24 02:24:16;;;;;;;14.13;3.40;;;7.20;99.90;;;;;;4228543;28;20051;-86
2022/11/24 02:26:40;;;;;;;18.77;4.38;;;7.20;99.90;;;;;;4229220;28;20047;-86
2022/11/24 02:28:42;;;;;;;18.33;3.30;;;7.20;99.90;;;;;;4229786;28;20507;-86
2022/11/24 02:30:43;;;;;;;15.82;4.03;;;7.20;99.90;;;;;;4228521;28;20110;-86
2022/11/24 02:32:45;;;;;;;20.60;3.67;;;7.20;99.90;;;;;;4208608;28;20557;-86
2022/11/24 02:34:46;;;;;;;17.25;3.72;;;7.20;99.90;;;;;;4227325;28;20059;-86
2022/11/24 02:36:47;;;;;;;16.08;2.92;;;7.20;99.90;;;;;;4225853;28;20040;-86
2022/11/24 02:38:48;;;;;;;22.45;3.95;;;7.20;99.90;;;;;;4197736;28;20504;-86
2022/11/24 02:40:50;;;;;;;16.73;3.17;;;7.20;99.90;;;;;;4223741;28;20086;-86
2022/11/24 02:43:00;;;;;;;11.00;3.17;;;7.20;99.90;;;;;;4214055;28;20079;-85
2022/11/24 02:45:01;;;;;;;15.43;3.20;;;7.20;99.90;;;;;;4231170;28;20419;-86
2022/11/24 02:47:07;;;;;;;16.67;2.88;;;7.20;99.90;;;;;;4247838;28;20050;-86
2022/11/24 02:49:09;;;;;;;12.02;3.58;;;7.20;99.90;;;;;;4229132;28;20499;-86
2022/11/24 02:51:10;;;;;;;14.75;3.90;;;7.10;99.90;;;;;;4247817;28;20063;-86
2022/11/24 02:53:10;;;;;;;22.92;4.65;;;7.10;99.90;;;;;;4229611;28;20417;-86
2022/11/24 02:55:12;;;;;;;11.35;3.78;;;7.10;99.90;;;;;;4212056;28;20056;-86
2022/11/24 02:57:13;;;;;;;16.40;4.05;;;7.10;99.90;;;;;;4247774;28;20076;-86
2022/11/24 02:59:14;;;;;;;16.38;3.22;;;7.00;99.90;;;;;;4229185;28;20123;-86
2022/11/24 03:01:16;;;;;;;20.67;3.45;;;7.10;99.90;;;;;;4226316;28;20054;-86
2022/11/24 03:03:18;;;;;;;20.92;5.30;;;7.10;99.90;;;;;;4225499;28;20059;-86
2022/11/24 03:05:19;;;;;;;18.88;2.75;;;7.10;99.90;;;;;;4242970;28;20043;-85
2022/11/24 03:07:21;;;;;;;14.38;3.85;;;7.10;99.90;;;;;;4212508;28;20044;-86
2022/11/24 03:09:22;;;;;;;20.48;3.08;;;7.10;99.90;;;;;;4214342;28;20584;-86
2022/11/24 03:11:23;;;;;;;18.05;3.47;;;7.10;99.90;;;;;;4250993;27;20040;-86
2022/11/24 03:13:25;;;;;;;15.07;2.65;;;7.10;99.90;;;;;;4215726;28;20138;-86
2022/11/24 03:15:25;;;;;;;11.52;2.53;;;7.10;99.90;;;;;;4250948;27;20507;-86
2022/11/24 03:17:27;;;;;;;13.15;3.22;;;7.10;99.90;;;;;;4232098;28;20079;-86
2022/11/24 03:19:28;;;;;;;11.07;2.70;;;7.10;99.90;;;;;;4231244;28;20043;-86
2022/11/24 03:21:29;;;;;;;17.70;3.13;;;7.10;99.90;;;;;;4234919;27;20058;-86
2022/11/24 03:23:31;;;;;;;14.27;2.83;;;7.10;99.90;;;;;;4248749;27;20075;-86
2022/11/24 03:25:31;;;;;;;20.17;3.17;;;7.10;99.90;;;;;;4232102;28;20052;-86
2022/11/24 03:27:32;;;;;;;16.48;3.35;;;7.10;99.90;;;;;;4250519;27;20035;-87
2022/11/24 03:29:33;;;;;;;22.50;3.55;;;7.10;99.90;;;;;;4250728;27;20043;-85
2022/11/24 03:31:35;;;;;;;13.18;3.60;;;7.10;99.90;;;;;;4232465;28;20052;-85
2022/11/24 03:33:37;;;;;;;16.38;3.55;;;7.10;99.90;;;;;;4232378;28;20047;-85
2022/11/24 03:35:38;;;;;;;12.70;3.00;;;7.10;99.90;;;;;;4232745;28;20044;-86
2022/11/24 03:37:39;;;;;;;15.90;3.17;;;7.20;99.90;;;;;;4207792;28;20047;-85
2022/11/24 03:39:41;;;;;;;16.15;2.53;;;7.20;99.90;;;;;;4250038;27;20047;-85
2022/11/24 03:41:43;;;;;;;19.67;3.80;;;7.20;99.90;;;;;;4218488;28;20127;-85
2022/11/24 03:43:43;;;;;;;13.20;3.13;;;7.20;99.90;;;;;;4245870;27;20050;-86
2022/11/24 03:45:48;;;;;;;12.52;2.67;;;7.20;99.90;;;;;;4253883;27;20051;-86
2022/11/24 03:47:51;;;;;;;8.57;2.53;;;7.20;99.90;;;;;;4235821;28;20040;-85
2022/11/24 03:49:52;;;;;;;11.73;2.25;;;7.20;99.90;;;;;;4235339;28;20044;-86
2022/11/24 03:51:53;;;;;;;18.25;2.95;;;7.20;99.90;;;;;;4234400;28;20097;-86
2022/11/24 03:53:53;;;;;;;18.42;4.25;;;7.20;99.90;;;;;;4250485;27;20047;-86
2022/11/24 03:55:56;;;;;;;25.13;3.72;;;7.20;99.90;;;;;;4231651;28;20126;-86
2022/11/24 03:57:58;;;;;;;16.42;3.00;;;7.30;99.90;;;;;;4214962;28;20055;-86
2022/11/24 03:59:58;;;;;;;22.92;3.60;;;7.20;99.90;;;;;;4232921;28;20036;-86
2022/11/24 04:01:59;;;;;;;10.70;3.00;;;7.30;99.90;;;;;;4227246;28;20412;-86
2022/11/24 04:04:00;;;;;;;13.15;2.60;;;7.20;99.90;;;;;;4249357;27;20027;-87
2022/11/24 04:06:02;;;;;;;18.58;4.13;;;7.30;99.90;;;;;;4231722;28;20043;-86
2022/11/24 04:08:04;;;;;;;14.02;3.08;;;7.30;99.90;;;;;;4244350;27;20070;-86
2022/11/24 04:10:05;;;;;;;16.13;3.22;;;7.20;99.90;;;;;;4219235;28;20519;-86
2022/11/24 04:14:27;;;;;;;16.08;2.55;;;7.20;99.90;;;;;;4231142;28;20055;-85
2022/11/24 04:16:28;;;;;;;12.00;3.08;;;7.20;99.90;;;;;;4214432;28;20456;-86
2022/11/24 04:18:28;;;;;;;22.27;3.33;;;7.20;99.90;;;;;;4248370;27;20044;-85
2022/11/24 04:20:29;;;;;;;20.73;3.55;;;7.20;99.90;;;;;;4231094;28;20047;-85
2022/11/24 04:22:30;;;;;;;15.23;3.05;;;7.20;99.90;;;;;;4231366;28;20048;-85
2022/11/24 04:24:30;;;;;;;20.30;3.42;;;7.20;99.90;;;;;;4249215;27;20047;-86
2022/11/24 04:26:31;;;;;;;12.90;2.80;;;7.10;99.90;;;;;;4230443;28;20119;-86
2022/11/24 04:28:33;;;;;;;13.02;2.55;;;7.20;99.90;;;;;;4232488;28;20099;-85
2022/11/24 04:30:37;;;;;;;23.33;3.75;;;7.10;99.90;;;;;;4232917;28;20100;-86
2022/11/24 04:32:38;;;;;;;14.18;2.90;;;7.10;99.90;;;;;;4227194;28;20055;-85
2022/11/24 04:34:38;;;;;;;17.38;2.75;;;7.10;99.90;;;;;;4242465;27;20127;-86
2022/11/24 04:36:40;;;;;;;16.35;3.50;;;7.20;99.90;;;;;;4215611;28;20145;-86
2022/11/24 04:38:41;;;;;;;13.20;2.50;;;7.10;99.90;;;;;;4216242;28;20098;-85
2022/11/24 04:40:42;;;;;;;11.18;2.38;;;7.10;99.90;;;;;;4224283;28;20044;-85
2022/11/24 04:42:50;;;;;;;18.08;3.05;;;7.10;99.90;;;;;;4215044;28;20577;-86
2022/11/24 04:44:52;;;;;;;11.55;2.25;;;7.10;99.90;;;;;;4248763;27;20079;-85
2022/11/24 04:46:52;;;;;;;15.73;2.33;;;7.10;99.90;;;;;;4230674;28;20089;-85
2022/11/24 04:48:53;;;;;;;17.70;3.08;;;7.10;99.90;;;;;;4249259;27;20442;-85
2022/11/24 04:50:54;;;;;;;13.15;2.75;;;7.10;99.90;;;;;;4248802;27;20058;-85
2022/11/24 04:52:55;;;;;;;6.50;2.03;;;7.10;99.90;;;;;;4248242;27;20083;-86
2022/11/24 04:54:57;;;;;;;12.23;1.90;;;7.10;99.90;;;;;;4248713;27;20054;-85
2022/11/24 04:56:58;;;;;;;21.77;2.30;;;7.10;99.90;;;;;;4249023;27;20035;-85
2022/11/24 04:59:00;;;;;;;13.32;3.38;;;7.10;99.90;;;;;;4200866;28;20096;-84
2022/11/24 05:01:06;;;;;;;19.85;2.75;;;7.40;99.90;;;;;;4235413;27;20055;-85
2022/11/24 05:03:06;;;;;;;11.00;2.58;;;7.10;99.90;;;;;;4213846;28;20047;-85
2022/11/24 05:05:07;;;;;;;21.88;3.72;;;7.10;99.90;;;;;;4248541;27;20118;-85
2022/11/24 05:07:11;;;;;;;20.90;2.60;;;7.00;99.90;;;;;;4230828;28;20534;-85
2022/11/24 05:09:16;;;;;;;11.93;1.98;;;7.00;99.90;;;;;;4231211;28;20522;-86
2022/11/24 05:11:18;;;;;;;12.48;3.08;;;7.00;99.90;;;;;;4249360;27;20099;-85
2022/11/24 05:13:20;;;;;;;16.90;2.72;;;7.00;99.90;;;;;;4233148;28;20384;-86
2022/11/24 05:15:22;;;;;;;12.73;3.35;;;7.00;99.90;;;;;;4251375;27;20068;-85
2022/11/24 05:17:23;;;;;;;15.45;2.38;;;7.00;99.90;;;;;;4217434;28;20036;-86
2022/11/24 05:19:23;;;;;;;17.95;3.17;;;7.00;99.90;;;;;;4221866;28;20384;-85
2022/11/24 05:21:24;;;;;;;13.88;2.13;;;7.00;99.90;;;;;;4233858;28;20059;-86
2022/11/24 05:23:26;;;;;;;13.40;2.08;;;6.90;99.90;;;;;;4251107;27;20065;-86
2022/11/24 05:25:26;;;;;;;13.25;2.55;;;6.90;99.90;;;;;;4253944;27;20043;-86
2022/11/24 05:27:27;;;;;;;11.43;3.35;;;7.00;99.90;;;;;;4251694;27;20383;-87
2022/11/24 05:29:28;;;;;;;10.98;2.42;;;7.10;99.90;;;;;;4234182;28;20078;-86
2022/11/24 05:31:29;;;;;;;14.13;2.03;;;6.90;99.90;;;;;;4250274;27;20043;-85
2022/11/24 05:33:32;;;;;;;10.45;2.47;;;6.90;99.90;;;;;;4251483;27;20035;-86
2022/11/24 05:35:34;;;;;;;9.02;2.28;;;6.90;99.90;;;;;;4243165;27;20047;-87
2022/11/24 05:37:35;;;;;;;13.48;2.53;;;6.90;99.90;;;;;;4206562;28;20048;-88
2022/11/24 05:39:36;;;;;;;11.88;2.08;;;6.80;99.90;;;;;;4229946;28;20648;-87
2022/11/24 05:41:37;;;;;;;13.55;2.20;;;6.80;99.90;;;;;;4216430;28;20035;-88
2022/11/24 05:43:37;;;;;;;17.15;3.08;;;6.80;99.90;;;;;;4233383;28;20509;-87
2022/11/24 05:45:39;;;;;;;19.20;2.42;;;6.80;99.90;;;;;;4215462;28;20126;-87
2022/11/24 05:47:40;;;;;;;15.68;1.92;;;6.80;99.90;;;;;;4232631;28;20088;-87
2022/11/24 05:49:41;;;;;;;13.25;2.10;;;6.80;99.90;;;;;;4205253;28;20160;-87
2022/11/24 05:51:42;;;;;;;11.73;2.17;;;6.80;99.90;;;;;;4213047;28;20051;-88
2022/11/24 05:53:43;;;;;;;12.98;2.33;;;6.80;99.90;;;;;;4229884;28;20615;-87
2022/11/24 05:55:45;;;;;;;12.73;2.08;;;6.80;99.90;;;;;;4229911;28;20052;-87
2022/11/24 05:57:46;;;;;;;15.68;2.63;;;6.80;99.90;;;;;;4213438;28;20072;-86
2022/11/24 05:59:46;;;;;;;21.27;2.83;;;6.80;99.90;;;;;;4213377;28;20071;-87
2022/11/24 06:01:47;;;;;;;13.20;2.92;;;7.30;99.90;;;;;;4228231;28;20035;-86
2022/11/24 06:03:48;;;;;;;10.25;2.15;;;6.80;99.90;;;;;;4235321;27;20098;-87
2022/11/24 06:05:49;;;;;;;15.70;2.33;;;6.90;99.90;;;;;;4229861;28;20050;-87
2022/11/24 06:07:51;;;;;;;17.50;2.00;;;6.80;99.90;;;;;;4247432;27;20046;-87
2022/11/24 06:09:51;;;;;;;13.25;2.25;;;6.80;99.90;;;;;;4229632;28;20444;-89
2022/11/24 06:11:52;;;;;;;11.50;1.95;;;6.90;99.90;;;;;;4230392;28;20119;-86
2022/11/24 06:13:57;;;;;;;17.67;3.20;;;6.80;99.90;;;;;;4248065;27;20043;-86
2022/11/24 06:15:58;;;;;;;16.63;3.05;;;6.80;99.90;;;;;;4230212;28;20051;-87
2022/11/24 06:18:00;;;;;;;15.40;3.17;;;6.80;99.90;;;;;;4248114;27;20098;-88
2022/11/24 06:20:01;;;;;;;9.18;2.72;;;6.90;99.90;;;;;;4242597;27;20047;-87
2022/11/24 06:22:01;;;;;;;12.30;2.25;;;6.90;99.90;;;;;;4238460;28;20078;-87
2022/11/24 06:24:04;;;;;;;16.35;2.60;;;6.90;99.90;;;;;;4247885;28;20043;-87
2022/11/24 06:26:05;;;;;;;13.10;2.03;;;6.90;99.90;;;;;;4229958;28;20124;-88
2022/11/24 06:28:06;;;;;;;11.23;2.00;;;6.90;99.90;;;;;;4230407;28;20048;-87
2022/11/24 06:30:09;;;;;;;13.07;2.15;;;6.90;99.90;;;;;;4219325;28;20109;-88
2022/11/24 06:32:10;;;;;;;11.55;1.80;;;6.90;99.90;;;;;;4214707;28;20088;-87
2022/11/24 06:34:12;;;;;;;15.10;2.90;;;6.90;99.90;;;;;;4216108;28;20047;-87
2022/11/24 06:36:14;;;;;;;10.77;2.50;;;6.80;99.90;;;;;;4232942;28;20051;-88
2022/11/24 06:38:15;;;;;;;13.25;2.20;;;6.80;99.90;;;;;;4210838;28;20055;-88
2022/11/24 06:40:16;;;;;;;12.52;2.85;;;6.80;99.90;;;;;;4231353;28;20539;-87
2022/11/24 06:42:17;;;;;;;14.77;2.00;;;6.90;99.90;;;;;;4213168;28;20044;-88
2022/11/24 06:44:19;;;;;;;13.13;2.05;;;6.90;99.90;;;;;;4250384;27;20041;-87
2022/11/24 06:46:19;;;;;;;12.63;2.28;;;7.30;99.90;;;;;;4236413;28;20105;-88
2022/11/24 06:48:20;;;;;;;8.50;1.60;;;6.80;99.90;;;;;;4235757;28;20120;-87
2022/11/24 06:50:22;;;;;;;12.85;2.60;;;6.80;99.90;;;;;;4217016;28;20471;-86
2022/11/24 06:52:23;;;;;;;13.55;3.63;;;6.80;99.90;;;;;;4251421;27;20055;-87
2022/11/24 06:54:24;;;;;;;15.40;2.25;;;6.80;99.90;;;;;;4251542;27;20098;-87
2022/11/24 06:56:25;;;;;;;18.85;2.17;;;7.30;99.90;;;;;;4216331;28;20058;-87
2022/11/24 06:58:26;;;;;;;14.30;2.08;;;6.80;99.90;;;;;;4215711;28;21026;-87
2022/11/24 07:00:28;;;;;;;8.40;1.95;;;6.80;99.90;;;;;;4199481;28;20062;-87
2022/11/24 07:02:28;;;;;;;10.88;1.83;;;6.80;99.90;;;;;;4231200;28;20058;-87
2022/11/24 07:04:29;;;;;;;11.90;2.20;;;6.80;99.90;;;;;;4231811;28;20551;-86
2022/11/24 07:06:30;;;;;;;6.50;1.60;;;6.90;99.90;;;;;;4234816;28;20040;-86
2022/11/24 07:08:31;;;;;;;15.05;2.30;;;6.90;99.90;;;;;;4216019;28;20047;-86
2022/11/24 07:10:32;;;;;;;9.88;2.45;;;6.90;99.90;;;;;;4215870;28;20084;-87
2022/11/24 07:12:34;;;;;;;10.50;1.95;;;6.80;99.90;;;;;;4215746;28;20507;-86
2022/11/24 07:14:35;;;;;;;14.75;3.03;;;6.80;99.90;;;;;;4232407;28;20472;-92
2022/11/24 07:16:38;;;;;;;7.95;2.22;;;7.20;99.90;;;;;;4217001;28;20130;-85
2022/11/24 07:18:38;;;;;;;16.02;2.53;;;6.80;99.90;;;;;;4250220;27;20051;-84
2022/11/24 07:20:39;;;;;;;12.13;1.73;;;6.80;99.90;;;;;;4217294;28;20138;-84
2022/11/24 07:22:42;;;;;;;10.77;2.17;;;6.80;99.90;;;;;;4225588;28;20051;-84
2022/11/24 07:24:43;;;;;;;13.27;2.38;;;6.80;99.90;;;;;;4251979;27;20088;-84
2022/11/24 07:26:43;;;;;;;9.02;2.03;;;6.80;99.90;;;;;;4233644;28;20492;-82
2022/11/24 07:28:45;;;;;;;12.57;2.22;;;6.80;99.90;;;;;;4252047;27;20117;-84
2022/11/24 07:30:46;;;;;;;10.75;1.90;;;6.80;99.90;;;;;;4216882;28;20047;-83
2022/11/24 07:32:47;;;;;;;11.00;1.98;;;7.10;99.90;;;;;;4215877;28;20048;-83
2022/11/24 07:34:48;;;;;;;12.82;2.40;;;7.30;99.90;;;;;;4250759;27;20038;-83
2022/11/24 07:36:50;;;;;;;7.32;2.15;;;6.80;99.90;;;;;;4238923;27;20046;-83
2022/11/24 07:38:51;;;;;;;7.50;1.73;;;6.80;99.90;;;;;;4252036;27;20043;-83
2022/11/24 07:40:52;;;;;;;5.40;2.30;;;6.80;99.90;;;;;;4252547;27;20047;-83
2022/11/24 07:42:54;;;;;;;14.18;1.98;;;6.80;99.90;;;;;;4251150;27;20495;-84
2022/11/24 07:44:56;;;;;;;8.98;1.70;;;6.80;99.90;;;;;;4251402;27;20047;-83
2022/11/24 07:46:57;;;;;;;11.85;2.08;;;6.80;99.90;;;;;;4233280;28;20051;-84
2022/11/24 07:48:58;;;;;;;11.75;3.00;;;6.80;99.90;;;;;;4251511;27;20100;-83
2022/11/24 07:51:00;;;;;;;8.77;2.08;;;6.80;99.90;;;;;;4232832;28;20066;-84
2022/11/24 07:53:03;;;;;;;12.35;2.78;;;6.80;99.90;;;;;;4232876;28;20075;-84
2022/11/24 07:55:05;;;;;;;9.50;2.20;;;6.80;99.90;;;;;;4215673;28;20091;-84
2022/11/24 07:57:06;;;;;;;16.45;2.80;;;6.80;99.90;;;;;;4232655;28;20051;-84
2022/11/24 07:59:07;;;;;;;11.35;2.50;;;6.80;99.90;;;;;;4251620;27;20042;-84
2022/11/24 08:01:13;;;;;;;11.60;2.17;;;6.80;99.90;;;;;;4232791;28;20085;-83
2022/11/24 08:03:15;;;;;;;14.75;2.75;;;6.80;99.90;;;;;;4233382;28;20416;-84
2022/11/24 08:05:16;;;;;;;8.30;2.00;;;6.80;99.90;;;;;;4232335;28;20047;-83
2022/11/24 08:07:17;;;;;;;7.57;2.00;;;6.90;99.90;;;;;;4251192;27;20115;-83
2022/11/24 08:09:18;;;;;;;12.05;2.30;;;6.90;99.90;;;;;;4215395;28;20475;-84
2022/11/24 08:11:19;;;;;;;14.90;2.15;;;6.90;99.90;;;;;;4251272;27;20039;-83
2022/11/24 08:13:20;;;;;;;15.80;2.95;;;6.90;99.90;;;;;;4228274;28;20043;-84
2022/11/24 08:15:21;;;;;;;12.90;2.28;;;7.00;99.90;;;;;;4235988;28;20052;-85
2022/11/24 08:17:21;;;;;;;16.05;3.17;;;7.00;99.90;;;;;;4231387;28;20047;-85
2022/11/24 08:19:22;;;;;;;12.45;2.38;;;7.10;99.90;;;;;;4215957;28;20044;-85
2022/11/24 08:21:23;;;;;;;12.68;3.72;;;7.10;99.90;;;;;;4231747;28;20129;-84
2022/11/24 08:23:24;;;;;;;10.85;2.85;;;7.10;99.90;;;;;;4251107;27;20046;-85
2022/11/24 08:25:31;;;;;;;13.07;3.50;;;7.20;99.90;;;;;;4251130;27;20471;-85
2022/11/24 08:27:32;;;;;;;11.40;2.42;;;7.20;99.90;;;;;;4215307;28;20039;-85
2022/11/24 08:29:33;;;;;;;12.35;2.33;;;7.40;99.90;;;;;;4222482;28;20074;-85
2022/11/24 08:31:37;;;;;;;11.90;2.55;;;7.40;99.90;;;;;;4241232;27;20392;-85
2022/11/24 08:33:38;;;;;;;12.27;2.40;;;7.50;99.90;;;;;;4222311;28;20122;-85
2022/11/24 08:35:40;;;;;;;10.70;2.95;;;7.60;99.90;;;;;;4215871;28;20052;-85
2022/11/24 08:37:41;;;;;;;13.35;3.50;;;7.60;99.90;;;;;;4216438;28;20339;-85
2022/11/24 08:39:43;;;;;;;11.48;3.20;;;7.70;99.90;;;;;;4250689;27;20046;-85
2022/11/24 08:41:45;;;;;;;18.02;3.13;;;8.00;99.90;;;;;;4214913;28;20040;-84
2022/11/24 08:43:46;;;;;;;10.25;2.63;;;8.10;99.90;;;;;;4242631;27;20043;-84
2022/11/24 08:45:48;;;;;;;14.20;2.33;;;8.40;99.90;;;;;;4232102;28;20052;-84
2022/11/24 08:47:53;;;;;;;9.50;2.30;;;8.60;99.90;;;;;;4249844;27;20451;-85
2022/11/24 08:49:54;;;;;;;12.43;2.67;;;8.90;99.90;;;;;;4231614;28;20040;-85
2022/11/24 08:51:56;;;;;;;9.30;2.05;;;9.20;99.90;;;;;;4231543;28;20180;-85
2022/11/24 08:53:59;;;;;;;10.20;1.92;;;9.60;99.90;;;;;;4216026;28;20548;-85
2022/11/24 08:56:00;;;;;;;14.00;2.80;;;9.90;99.90;;;;;;4226580;28;20527;-86
2022/11/24 08:58:01;;;;;;;12.30;2.35;;;10.10;99.90;;;;;;4232986;28;20079;-85
2022/11/24 09:00:04;;;;;;;10.05;2.85;;;10.50;99.90;;;;;;4233397;28;20051;-85
2022/11/24 09:02:05;;;;;;;12.40;2.83;;;10.50;99.90;;;;;;4232855;28;20435;-84
2022/11/24 09:04:05;;;;;;;12.40;2.85;;;10.20;99.90;;;;;;4234569;28;20487;-85
2022/11/24 09:06:08;;;;;;;10.13;2.20;;;10.00;99.90;;;;;;4218933;28;20040;-86
2022/11/24 09:08:08;;;;;;;8.10;2.05;;;9.80;99.90;;;;;;4224479;28;20099;-85
2022/11/24 09:10:09;;;;;;;9.57;3.38;;;9.70;99.90;;;;;;4222275;28;20051;-86
2022/11/24 09:12:10;;;;;;;12.65;2.50;;;9.50;99.90;;;;;;4219930;28;20051;-86
2022/11/24 09:14:10;;;;;;;12.57;2.55;;;9.40;99.90;;;;;;4208565;28;20048;-86
2022/11/24 09:16:13;;;;;;;10.75;3.28;;;9.20;99.90;;;;;;4227893;28;20054;-85
2022/11/24 09:18:14;;;;;;;10.45;2.20;;;9.10;99.90;;;;;;4233918;28;20070;-85
2022/11/24 09:20:15;;;;;;;7.20;2.40;;;9.00;99.90;;;;;;4232937;28;20035;-85
2022/11/24 09:22:18;;;;;;;14.90;3.28;;;8.90;99.90;;;;;;4222737;28;20116;-85
2022/11/24 09:24:19;;;;;;;11.02;2.53;;;8.80;99.90;;;;;;4214837;28;20469;-85
2022/11/24 09:26:24;;;;;;;10.30;2.47;;;8.70;99.90;;;;;;4229389;28;20204;-85
2022/11/24 09:28:25;;;;;;;13.15;2.70;;;8.60;99.90;;;;;;4213944;28;20121;-85
2022/11/24 09:30:27;;;;;;;9.20;2.00;;;8.50;99.90;;;;;;4231845;28;20048;-84
2022/11/24 09:32:29;;;;;;;7.57;2.65;;;8.50;99.90;;;;;;4231950;28;20047;-84
2022/11/24 09:34:30;;;;;;;15.40;2.50;;;9.00;99.90;;;;;;4232241;28;20181;-84
2022/11/24 09:36:31;;;;;;;8.85;2.00;;;9.70;99.90;;;;;;4214622;28;20484;-84
2022/11/24 09:38:32;;;;;;;10.77;2.33;;;10.30;99.90;;;;;;4231343;28;20050;-84
2022/11/24 09:40:33;;;;;;;5.40;1.70;;;10.50;99.90;;;;;;4233040;28;20058;-84
2022/11/24 09:43:08;;;;;;;8.95;2.50;;;10.70;99.90;;;;;;4231718;28;20507;-85
2022/11/24 09:45:15;;;;;;;9.07;1.83;;;10.90;99.90;;;;;;4231457;28;20095;-85
2022/11/24 09:47:24;;;;;;;5.80;1.80;;;11.10;99.90;;;;;;4231145;28;20588;-85
2022/11/24 09:49:40;;;;;;;6.07;2.05;;;11.20;99.90;;;;;;4215530;28;20052;-85
2022/11/24 09:51:45;;;;;;;4.38;1.80;;;11.20;99.90;;;;;;4250215;27;20080;-85
2022/11/24 09:54:00;;;;;;;10.25;2.25;;;11.30;99.90;;;;;;4233926;28;20051;-84
2022/11/24 09:56:23;;;;;;;6.70;1.60;;;11.40;99.90;;;;;;4249580;27;20130;-86
2022/11/24 09:58:47;;;;;;;6.57;1.67;;;11.50;99.90;;;;;;4213925;28;20044;-85
2022/11/24 10:00:51;;;;;;;9.73;2.08;;;11.40;99.90;;;;;;4230125;28;20054;-84
2022/11/24 10:02:52;;;;;;;6.10;1.85;;;11.40;99.90;;;;;;4230754;28;20050;-85
2022/11/24 10:04:54;;;;;;;5.80;2.33;;;11.50;99.90;;;;;;4249851;27;20158;-84
2022/11/24 10:07:24;;;;;;;7.15;1.52;;;11.50;99.90;;;;;;4231017;28;20048;-85
2022/11/24 10:09:43;;;;;;;7.25;1.73;;;11.60;99.90;;;;;;4248590;27;20125;-84
2022/11/24 10:11:49;;;;;;;5.07;1.20;;;11.80;99.90;;;;;;4231621;28;20047;-85
2022/11/24 10:13:59;;;;;;;3.83;1.58;;;11.80;99.90;;;;;;4231083;28;20051;-85
2022/11/24 10:16:13;;;;;;;7.07;1.20;;;11.90;99.90;;;;;;4249048;27;20047;-84
2022/11/24 10:18:35;;;;;;;7.28;1.50;;;11.90;99.90;;;;;;4213606;28;20130;-85
2022/11/24 10:20:44;;;;;;;4.43;1.55;;;12.00;99.90;;;;;;4250693;27;20046;-85
2022/11/24 10:23:27;;;;;;;5.32;2.03;;;12.00;99.90;;;;;;4216449;28;20050;-85
2022/11/24 10:25:39;;;;;;;3.90;1.52;;;12.10;99.90;;;;;;4238773;28;20134;-86
2022/11/24 10:27:43;;;;;;;6.70;1.88;;;12.10;99.90;;;;;;4249995;28;20483;-84
2022/11/24 10:29:49;;;;;;;5.18;1.10;;;12.20;99.90;;;;;;4233051;28;20119;-85
2022/11/24 10:31:55;;;;;;;6.35;1.85;;;12.30;99.90;;;;;;4251314;28;20043;-85
2022/11/24 10:34:03;;;;;;;3.88;1.58;;;12.30;99.90;;;;;;4249599;28;20109;-85
2022/11/24 10:36:11;;;;;;;8.10;1.60;;;12.40;99.90;;;;;;4214368;28;20059;-85
2022/11/24 10:38:33;;;;;;;5.38;1.35;;;12.50;99.90;;;;;;4231132;28;20115;-86
2022/11/24 10:41:00;;;;;;;4.63;1.50;;;12.50;99.90;;;;;;4231152;28;20107;-85
2022/11/24 10:43:05;;;;;;;4.55;1.33;;;12.50;99.90;;;;;;4231579;28;20396;-85